Time;durP1;ratioP1;P1;durP2;ratioP2;P2;SDS_P1;SDS_P2;PMS_P1;PMS_P2;Temp;Humidity;BMP_temperature;BMP_pressure;BME280_temperature;BME280_humidity;BME280_pressure;Samples;Min_cycle;Max_cycle;Signal;HPM_P1;HPM_P2
2023/04/05 01:07:07;;;;;;;18.50;7.10;;;;;;;-1.27;68.18;101290.92;104375;1273;84425;-53
2023/04/05 01:10:58;;;;;;;14.10;6.50;;;;;;;-1.25;68.36;101289.08;103786;1279;73923;-55
2023/04/05 01:14:32;;;;;;;;;;;;;;;;;;;;;
2023/04/05 01:22:16;;;;;;;15.60;6.80;;;;;;;-1.22;68.43;101276.63;103184;1285;73009;-55
2023/04/05 01:30:09;;;;;;;;;;;;;;;;;;;;;
2023/04/05 01:38:16;;;;;;;16.60;7.90;;;;;;;-1.06;69.36;101258.49;106293;1284;600171;-54
2023/04/05 01:41:25;;;;;;;16.60;7.80;;;;;;;-1.07;69.27;101265.70;108179;1269;67611;-50
2023/04/05 01:45:11;;;;;;;;;;;;;;;;;;;;;
2023/04/05 01:48:35;;;;;;;14.90;6.60;;;;;;;-1.17;69.47;101269.40;108445;1269;72491;-51
2023/04/05 01:52:07;;;;;;;13.20;6.40;;;;;;;-1.17;69.80;101271.28;103778;1271;5402320;-52
2023/04/05 01:55:02;;;;;;;14.30;6.70;;;;;;;-1.22;69.97;101272.52;107985;1271;74203;-51
2023/04/05 01:58:23;;;;;;;;;;;;;;;;;;;;;
2023/04/05 02:01:55;;;;;;;12.80;7.00;;;;;;;-1.35;70.07;101273.25;107945;1271;67452;-51
2023/04/05 02:05:37;;;;;;;12.80;6.60;;;;;;;-1.37;70.23;101271.98;107953;1270;71541;-52
2023/04/05 02:09:25;;;;;;;15.70;7.30;;;;;;;-1.38;70.25;101268.70;107991;1271;83517;-53
2023/04/05 02:13:04;;;;;;;17.90;6.70;;;;;;;-1.36;70.49;101265.30;107760;1271;73757;-51
2023/04/05 02:16:34;;;;;;;14.00;6.40;;;;;;;-1.33;70.83;101261.46;107972;1271;67019;-53
2023/04/05 02:20:17;;;;;;;12.20;6.80;;;;;;;-1.32;71.03;101259.92;107917;1271;67303;-53
2023/04/05 02:23:59;;;;;;;14.60;6.40;;;;;;;-1.27;70.91;101258.86;108196;1267;73332;-54
2023/04/05 02:26:54;;;;;;;;;;;;;;;-1.21;71.17;101253.35;108538;1267;83562;-51
2023/04/05 02:30:14;;;;;;;;;;;;;;;;;;;;;
2023/04/05 02:34:04;;;;;;;14.70;6.00;;;;;;;-1.06;71.19;101255.77;108948;1260;66878;-52
2023/04/05 02:37:27;;;;;;;13.50;6.50;;;;;;;-0.93;71.64;101259.88;108914;1259;66825;-52
2023/04/05 02:40:54;;;;;;;13.80;6.50;;;;;;;-0.83;71.59;101259.23;108971;1260;73204;-51
2023/04/05 02:43:59;;;;;;;13.90;6.50;;;;;;;-0.74;71.62;101262.02;108956;1261;83263;-51
2023/04/05 02:47:31;;;;;;;15.40;6.20;;;;;;;-0.65;71.43;101260.50;108944;1261;72687;-52
2023/04/05 02:50:58;;;;;;;14.70;6.60;;;;;;;-0.57;71.34;101258.95;108946;1260;66950;-50
2023/04/05 02:54:34;;;;;;;14.80;6.80;;;;;;;-0.55;71.13;101254.38;108950;1260;66957;-55
2023/04/05 02:57:27;;;;;;;11.80;5.90;;;;;;;-0.53;71.03;101254.24;108945;1261;72347;-51
2023/04/05 03:00:53;;;;;;;16.70;7.30;;;;;;;-0.49;71.23;101251.05;108971;1260;84038;-51
2023/04/05 03:04:22;;;;;;;13.90;6.30;;;;;;;-0.46;71.16;101245.65;108857;1259;72853;-53
2023/04/05 03:07:41;;;;;;;17.90;7.20;;;;;;;-0.42;71.25;101251.73;108952;1259;66944;-53
2023/04/05 03:11:06;;;;;;;14.90;6.90;;;;;;;-0.39;71.15;101246.13;108941;1261;66825;-51
2023/04/05 03:14:38;;;;;;;;;;;;;;;;;;;;;
2023/04/05 03:18:08;;;;;;;;;;;;;;;;;;;;;
2023/04/05 03:21:30;;;;;;;12.40;6.70;;;;;;;-0.27;71.40;101240.55;108963;1260;73986;-50
2023/04/05 03:24:46;;;;;;;;;;;;;;;;;;;;;
2023/04/05 03:28:00;;;;;;;19.60;7.10;;;;;;;-0.19;71.57;101237.09;108850;1260;67632;-49
2023/04/05 03:31:12;;;;;;;16.10;7.30;;;;;;;-0.15;71.53;101232.90;108916;1260;73423;-52
2023/04/05 03:34:45;;;;;;;;;;;;;;;;;;;;;
2023/04/05 03:38:06;;;;;;;13.20;6.70;;;;;;;-0.11;71.43;101227.63;108956;1260;73752;-50
2023/04/05 03:41:28;;;;;;;15.50;7.20;;;;;;;-0.12;71.35;101219.54;108910;1261;67764;-50
2023/04/05 03:45:05;;;;;;;;;;;;;;;;;;;;;
2023/04/05 03:48:21;;;;;;;15.90;7.10;;;;;;;-0.19;71.12;101214.92;108885;1261;73419;-49
2023/04/05 03:51:41;;;;;;;;;;;;;;;;;;;;;
2023/04/05 03:55:00;;;;;;;13.70;6.50;;;;;;;-0.24;71.15;101210.55;108831;1260;73733;-53
2023/04/05 04:02:17;;;;;;;;;;;;;;;;;;;;;
2023/04/05 04:05:37;;;;;;;22.10;13.30;;;;;;;-0.23;71.15;101212.79;108822;1260;73347;-50
2023/04/05 04:08:53;;;;;;;13.40;7.40;;;;;;;-0.23;71.38;101210.92;108847;1260;82417;-51
2023/04/05 04:12:01;;;;;;;;;;;;;;;;;;;;;
2023/04/05 04:15:52;;;;;;;17.20;7.70;;;;;;;-0.18;71.38;101215.63;108850;1260;67833;-49
2023/04/05 04:19:32;;;;;;;16.80;7.10;;;;;;;-0.14;71.50;101214.17;108839;1260;67739;-49
2023/04/05 04:22:09;;;;;;;16.00;6.70;;;;;;;-0.14;71.18;101216.25;108707;1261;73259;-47
2023/04/05 04:25:05;;;;;;;14.00;6.50;;;;;;;-0.16;71.04;101213.11;108625;1261;84174;-47
2023/04/05 04:28:00;;;;;;;14.40;6.20;;;;;;;-0.17;71.13;101213.77;108614;1260;73861;-48
2023/04/05 04:30:50;;;;;;;20.00;7.90;;;;;;;-0.17;71.18;101210.52;108648;1260;67775;-46
2023/04/05 04:33:42;;;;;;;18.20;7.70;;;;;;;-0.16;71.08;101210.36;108677;1261;68060;-47
2023/04/05 04:36:38;;;;;;;28.60;11.20;;;;;;;-0.17;71.07;101208.45;108631;1260;73535;-46
2023/04/05 04:39:38;;;;;;;14.90;7.70;;;;;;;-0.19;71.14;101211.30;108670;1261;82564;-50
2023/04/05 04:42:43;;;;;;;16.00;7.80;;;;;;;-0.21;71.15;101209.41;108307;1261;73905;-47
2023/04/05 04:45:53;;;;;;;14.90;8.10;;;;;;;-0.20;71.16;101214.21;108560;1266;67822;-46
2023/04/05 04:48:46;;;;;;;14.70;7.30;;;;;;;-0.21;71.17;101218.33;108616;1265;67796;-47
2023/04/05 04:51:41;;;;;;;16.60;7.80;;;;;;;-0.20;71.32;101215.26;108719;1260;71724;-48
2023/04/05 04:54:18;;;;;;;16.40;8.30;;;;;;;-0.19;71.19;101209.27;108682;1260;83358;-46
2023/04/05 04:56:49;;;;;;;15.00;8.10;;;;;;;-0.17;71.26;101211.89;108669;1261;73629;-46
2023/04/05 04:59:45;;;;;;;;;;;;;;;;;;;;;
2023/04/05 05:02:30;;;;;;;15.30;6.90;;;;;;;-0.08;71.58;101211.70;108697;1260;67717;-46
2023/04/05 05:05:27;;;;;;;18.80;7.70;;;;;;;-0.01;71.47;101211.67;108699;1260;73288;-46
2023/04/05 05:07:58;;;;;;;19.00;8.00;;;;;;;0.03;71.34;101208.14;108698;1261;83317;-47
2023/04/05 05:10:41;;;;;;;15.70;7.40;;;;;;;0.09;71.39;101206.54;108659;1260;73824;-46
2023/04/05 05:13:22;;;;;;;11.20;6.20;;;;;;;0.15;71.26;101208.36;108666;1260;67730;-48
2023/04/05 05:16:03;;;;;;;18.30;9.00;;;;;;;0.20;71.34;101206.92;108673;1260;68083;-48
2023/04/05 05:18:41;;;;;;;15.10;6.60;;;;;;;0.26;71.22;101207.70;108674;1260;73282;-47
2023/04/05 05:21:35;;;;;;;;;;;;;;;;;;;;;
2023/04/05 05:24:16;;;;;;;14.10;6.70;;;;;;;0.34;71.10;101208.54;108666;1260;73772;-48
2023/04/05 05:26:53;;;;;;;20.10;8.10;;;;;;;0.39;71.04;101211.73;108678;1260;68515;-48
2023/04/05 05:29:36;;;;;;;39.90;14.20;;;;;;;0.46;71.25;101212.19;108673;1260;67786;-48
2023/04/05 05:32:16;;;;;;;18.90;8.40;;;;;;;0.55;71.39;101214.73;108672;1260;72214;-48
2023/04/05 05:34:51;;;;;;;20.40;9.00;;;;;;;0.63;71.58;101221.60;108662;1260;83387;-50
2023/04/05 05:37:36;;;;;;;31.70;12.30;;;;;;;0.70;71.48;101224.79;108628;1260;72695;-49
2023/04/05 05:40:27;;;;;;;35.20;13.00;;;;;;;0.78;71.49;101221.31;108610;1261;67705;-49
2023/04/05 05:43:14;;;;;;;35.20;14.80;;;;;;;0.85;71.38;101221.78;108671;1260;67693;-47
2023/04/05 05:45:48;;;;;;;23.50;12.50;;;;;;;0.92;71.37;101226.70;108702;1260;73441;-48
2023/04/05 05:48:23;;;;;;;23.70;11.00;;;;;;;0.97;71.46;101227.30;108648;1264;83394;-47
2023/04/05 05:51:08;;;;;;;45.40;19.00;;;;;;;1.01;71.43;101228.21;108618;1260;73709;-47
2023/04/05 05:53:49;;;;;;;59.70;23.60;;;;;;;1.05;71.41;101228.12;108706;1260;67776;-47
2023/04/05 05:56:23;;;;;;;24.90;10.80;;;;;;;1.08;71.22;101223.17;108694;1260;67747;-48
2023/04/05 05:59:01;;;;;;;13.00;7.00;;;;;;;1.14;71.04;101222.74;108690;1260;71985;-48
2023/04/05 06:01:33;;;;;;;16.80;6.70;;;;;;;1.18;70.87;101220.55;108659;1260;83502;-50
2023/04/05 06:04:08;;;;;;;17.20;8.20;;;;;;;1.20;70.78;101222.30;108668;1260;74203;-48
2023/04/05 06:06:43;;;;;;;13.90;7.80;;;;;;;1.22;70.83;101224.23;108684;1260;67729;-50
2023/04/05 06:09:14;;;;;;;20.30;8.90;;;;;;;1.23;70.83;101219.77;108656;1260;67856;-48
2023/04/05 06:11:47;;;;;;;58.50;26.80;;;;;;;1.28;70.71;101221.55;108644;1260;73353;-50
2023/04/05 06:14:24;;;;;;;45.00;20.20;;;;;;;1.34;70.68;101223.02;108403;1267;84289;-49
2023/04/05 06:16:56;;;;;;;42.30;19.30;;;;;;;1.40;70.47;101220.69;108406;1265;74355;-48
2023/04/05 06:19:30;;;;;;;17.00;9.30;;;;;;;1.44;70.73;101223.84;108399;1267;68022;-48
2023/04/05 06:22:05;;;;;;;40.20;16.60;;;;;;;1.50;70.43;101224.09;108417;1267;67914;-48
2023/04/05 06:24:33;;;;;;;34.40;16.10;;;;;;;1.56;70.54;101222.28;108433;1265;73311;-48
2023/04/05 06:27:02;;;;;;;35.90;14.00;;;;;;;1.64;70.66;101221.86;108416;1266;82987;-49
2023/04/05 06:29:34;;;;;;;31.20;13.50;;;;;;;1.74;70.41;101225.44;108378;1267;72614;-49
2023/04/05 06:32:05;;;;;;;23.40;11.10;;;;;;;1.83;70.55;101222.62;108464;1260;67910;-48
2023/04/05 06:34:36;;;;;;;38.00;16.80;;;;;;;1.93;70.34;101217.21;108634;1260;67755;-48
2023/04/05 06:37:07;;;;;;;24.30;11.70;;;;;;;2.03;70.09;101217.15;108684;1259;72259;-48
2023/04/05 06:39:36;;;;;;;24.90;13.20;;;;;;;2.08;69.86;101217.21;108670;1260;83575;-49
2023/04/05 06:42:11;;;;;;;18.80;9.20;;;;;;;2.14;69.67;101217.09;108669;1260;73941;-48
2023/04/05 06:44:46;;;;;;;19.10;9.20;;;;;;;2.20;69.54;101217.67;108579;1260;67781;-52
2023/04/05 06:47:17;;;;;;;19.30;8.80;;;;;;;2.24;69.28;101223.77;108658;1260;67786;-50
2023/04/05 06:49:57;;;;;;;14.40;7.20;;;;;;;2.23;69.43;101223.05;108768;1260;74113;-51
2023/04/05 06:52:41;;;;;;;16.40;8.40;;;;;;;2.28;69.18;101224.33;108881;1260;82882;-53
2023/04/05 06:55:30;;;;;;;21.50;10.60;;;;;;;2.34;69.36;101220.41;108825;1260;72809;-50
2023/04/05 06:58:08;;;;;;;17.60;8.70;;;;;;;2.41;69.17;101216.69;108890;1260;66897;-54
2023/04/05 07:00:54;;;;;;;26.20;12.40;;;;;;;2.48;69.03;101213.46;108896;1260;66885;-52
2023/04/05 07:03:32;;;;;;;25.50;12.80;;;;;;;2.55;69.01;101209.05;108930;1260;74106;-55
2023/04/05 07:06:07;;;;;;;12.70;7.00;;;;;;;2.64;68.83;101212.05;108903;1260;82651;-54
2023/04/05 07:08:41;;;;;;;14.30;6.90;;;;;;;2.74;68.71;101215.77;108855;1260;73854;-54
2023/04/05 07:11:21;;;;;;;14.60;7.70;;;;;;;2.84;68.57;101210.66;108840;1260;66862;-53
2023/04/05 07:13:58;;;;;;;11.70;6.90;;;;;;;2.98;68.65;101209.04;108936;1260;66779;-55
2023/04/05 07:16:37;;;;;;;17.30;8.30;;;;;;;3.12;68.27;101213.98;108916;1260;74128;-54
2023/04/05 07:19:27;;;;;;;;;;;;;;;;;;;;;
2023/04/05 07:22:14;;;;;;;21.50;10.40;;;;;;;3.38;68.32;101206.19;108853;1260;73764;-54
2023/04/05 07:24:45;;;;;;;20.40;10.70;;;;;;;3.45;67.83;101203.11;108911;1259;66929;-54
2023/04/05 07:27:17;;;;;;;13.20;7.00;;;;;;;3.47;67.68;101198.11;108895;1260;67255;-54
2023/04/05 07:29:46;;;;;;;12.80;6.10;;;;;;;3.46;67.42;101197.05;108924;1260;74134;-54
2023/04/05 07:32:23;;;;;;;12.70;7.00;;;;;;;3.43;67.39;101197.05;108937;1260;82600;-53
2023/04/05 07:34:57;;;;;;;9.40;4.40;;;;;;;3.39;67.39;101197.02;108911;1259;73864;-54
2023/04/05 07:37:32;;;;;;;7.50;4.70;;;;;;;3.34;67.29;101192.33;108872;1260;66972;-53
2023/04/05 07:40:09;;;;;;;11.00;5.60;;;;;;;3.34;67.43;101188.54;108882;1260;66798;-54
2023/04/05 07:42:40;;;;;;;7.60;3.50;;;;;;;3.39;67.61;101187.70;108927;1260;73255;-53
2023/04/05 07:45:12;;;;;;;7.70;4.30;;;;;;;3.39;67.30;101186.14;108905;1260;83733;-54
2023/04/05 07:47:49;;;;;;;12.20;5.70;;;;;;;3.38;67.12;101181.13;108888;1260;72755;-55
2023/04/05 07:50:33;;;;;;;10.70;5.10;;;;;;;3.43;67.44;101178.04;108875;1261;66903;-54
2023/04/05 07:53:06;;;;;;;7.30;3.90;;;;;;;3.51;67.32;101183.95;108900;1260;67172;-54
2023/04/05 07:55:49;;;;;;;10.20;4.70;;;;;;;3.59;67.30;101177.41;108916;1260;74094;-54
2023/04/05 07:58:21;;;;;;;10.30;5.10;;;;;;;3.70;67.48;101174.70;108922;1260;83458;-55
2023/04/05 08:01:03;;;;;;;8.90;5.30;;;;;;;3.83;67.56;101171.63;108884;1259;72785;-54
2023/04/05 08:03:40;;;;;;;8.70;3.20;;;;;;;3.96;67.47;101172.18;108888;1260;66854;-54
2023/04/05 08:06:16;;;;;;;10.00;3.50;;;;;;;4.05;67.35;101175.13;108896;1260;66773;-55
2023/04/05 08:08:47;;;;;;;7.40;4.10;;;;;;;4.11;66.94;101173.25;108890;1259;74195;-54
2023/04/05 08:11:20;;;;;;;5.60;3.00;;;;;;;4.11;66.92;101169.96;108901;1260;83506;-55
2023/04/05 08:13:58;;;;;;;6.10;2.90;;;;;;;4.24;66.96;101175.17;108876;1260;73755;-54
2023/04/05 08:16:26;;;;;;;7.40;3.70;;;;;;;4.43;66.88;101173.29;108890;1260;66866;-54
2023/04/05 08:18:57;;;;;;;6.10;2.30;;;;;;;4.52;66.41;101173.29;108842;1260;66951;-53
2023/04/05 08:21:29;;;;;;;6.20;2.70;;;;;;;4.48;65.84;101177.27;108865;1260;73241;-55
2023/04/05 08:24:00;;;;;;;5.80;2.40;;;;;;;4.45;65.70;101178.30;108895;1260;83927;-54
2023/04/05 08:26:45;;;;;;;6.40;3.60;;;;;;;4.44;65.71;101175.19;108876;1260;72891;-54
2023/04/05 08:29:19;;;;;;;11.40;5.10;;;;;;;4.46;65.63;101172.77;108866;1260;66904;-53
2023/04/05 08:31:50;;;;;;;13.10;5.80;;;;;;;4.50;65.47;101172.43;108927;1260;66865;-53
2023/04/05 08:34:19;;;;;;;12.80;5.60;;;;;;;4.58;65.47;101170.88;108910;1259;73280;-54
2023/04/05 08:36:53;;;;;;;7.50;2.90;;;;;;;4.68;65.12;101167.05;108936;1260;83603;-53
2023/04/05 08:39:22;;;;;;;9.80;4.80;;;;;;;4.81;65.32;101166.87;108889;1260;73876;-54
2023/04/05 08:42:17;;;;;;;10.30;4.40;;;;;;;4.96;65.19;101161.48;108884;1260;66955;-54
2023/04/05 08:44:47;;;;;;;5.00;2.80;;;;;;;5.14;65.41;101161.45;108897;1260;66839;-54
2023/04/05 08:47:17;;;;;;;7.70;2.80;;;;;;;5.21;64.96;101160.38;108879;1260;72958;-54
2023/04/05 08:49:54;;;;;;;7.00;3.20;;;;;;;5.21;64.58;101155.36;108920;1260;82956;-54
2023/04/05 08:52:22;;;;;;;13.70;6.00;;;;;;;5.30;65.03;101152.55;108895;1260;73945;-55
2023/04/05 08:54:54;;;;;;;9.10;5.40;;;;;;;5.50;64.91;101151.09;108879;1260;66970;-54
2023/04/05 08:57:28;;;;;;;7.20;3.60;;;;;;;5.66;64.62;101149.81;108936;1260;66822;-55
2023/04/05 08:59:58;;;;;;;9.50;3.80;;;;;;;5.87;65.05;101151.11;108891;1260;73054;-55
2023/04/05 09:02:28;;;;;;;8.20;4.00;;;;;;;6.19;65.31;101145.89;108851;1260;83477;-54
2023/04/05 09:04:57;;;;;;;6.50;3.20;;;;;;;6.48;64.99;101149.31;108868;1260;72433;-54
2023/04/05 09:07:29;;;;;;;6.50;3.20;;;;;;;6.50;63.84;101154.00;108859;1260;66872;-55
2023/04/05 09:09:59;;;;;;;8.50;4.70;;;;;;;6.42;63.64;101157.70;108877;1259;66859;-54
2023/04/05 09:12:28;;;;;;;7.60;3.70;;;;;;;6.45;63.75;101155.77;108854;1261;73798;-54
2023/04/05 09:14:59;;;;;;;6.20;3.20;;;;;;;6.44;63.56;101154.90;108902;1260;83564;-54
2023/04/05 09:17:29;;;;;;;18.70;9.30;;;;;;;6.36;62.98;101158.09;108912;1260;72087;-55
2023/04/05 09:19:57;;;;;;;21.00;10.80;;;;;;;6.29;62.46;101157.11;108872;1260;67044;-55
2023/04/05 09:22:26;;;;;;;58.20;31.10;;;;;;;6.40;63.30;101157.20;108908;1260;66848;-54
2023/04/05 09:24:55;;;;;;;17.30;10.00;;;;;;;6.67;63.45;101153.50;108892;1260;73060;-54
2023/04/05 09:27:24;;;;;;;17.50;10.40;;;;;;;6.94;63.46;101148.54;108840;1260;82584;-55
2023/04/05 09:29:59;;;;;;;9.20;4.70;;;;;;;7.05;62.76;101147.58;108890;1260;73959;-54
2023/04/05 09:32:28;;;;;;;9.10;5.20;;;;;;;7.00;62.63;101147.10;108876;1260;66884;-54
2023/04/05 09:34:59;;;;;;;8.40;4.80;;;;;;;6.93;62.40;101147.17;108881;1259;66959;-54
2023/04/05 09:37:31;;;;;;;4.80;3.50;;;;;;;6.84;62.26;101149.52;108918;1260;74237;-54
2023/04/05 09:40:05;;;;;;;8.30;3.80;;;;;;;6.82;62.52;101148.33;108879;1260;82118;-55
2023/04/05 09:42:44;;;;;;;7.90;4.30;;;;;;;6.98;62.77;101150.42;108899;1260;73495;-55
2023/04/05 09:45:14;;;;;;;10.20;5.50;;;;;;;7.05;62.47;101140.80;108897;1260;66847;-55
2023/04/05 09:47:55;;;;;;;9.30;5.20;;;;;;;7.12;62.39;101140.72;108874;1260;66850;-55
2023/04/05 09:50:23;;;;;;;7.90;4.20;;;;;;;7.10;61.81;101143.35;108919;1260;73586;-55
2023/04/05 09:53:05;;;;;;;9.60;4.80;;;;;;;7.15;61.69;101137.03;108869;1260;83588;-55
2023/04/05 09:55:34;;;;;;;8.00;4.30;;;;;;;7.47;62.01;101135.95;108916;1260;73890;-55
2023/04/05 09:58:02;;;;;;;8.60;5.10;;;;;;;7.73;61.92;101133.88;108887;1260;66864;-55
2023/04/05 10:00:31;;;;;;;6.20;4.10;;;;;;;7.92;61.95;101134.84;108923;1260;66716;-56
2023/04/05 10:02:59;;;;;;;9.00;4.80;;;;;;;7.98;61.62;101131.61;108968;1260;73138;-55
2023/04/05 10:05:28;;;;;;;7.10;3.90;;;;;;;8.16;61.41;101127.69;108915;1260;83359;-54
2023/04/05 10:07:56;;;;;;;5.70;3.90;;;;;;;8.44;61.28;101130.58;108885;1260;72739;-55
2023/04/05 10:10:25;;;;;;;6.90;3.60;;;;;;;8.39;60.90;101129.79;108919;1260;67251;-55
2023/04/05 10:12:53;;;;;;;6.10;3.60;;;;;;;8.20;60.52;101132.52;108879;1260;66859;-55
2023/04/05 10:15:22;;;;;;;6.90;3.90;;;;;;;8.20;60.62;101126.94;108939;1260;74206;-56
2023/04/05 10:17:50;;;;;;;5.40;3.60;;;;;;;8.56;60.68;101125.85;108956;1259;83556;-55
2023/04/05 10:20:20;;;;;;;5.70;3.10;;;;;;;8.71;59.92;101123.50;108898;1260;74187;-55
2023/04/05 10:23:14;;;;;;;6.30;2.80;;;;;;;8.51;59.33;101126.64;108906;1259;66879;-55
2023/04/05 10:25:51;;;;;;;5.20;3.60;;;;;;;8.32;59.51;101128.33;108912;1260;66765;-54
2023/04/05 10:28:34;;;;;;;4.50;3.20;;;;;;;8.21;59.22;101125.36;108929;1261;73783;-56
2023/04/05 10:31:14;;;;;;;15.50;9.20;;;;;;;8.20;59.29;101126.76;108958;1260;83479;-66
2023/04/05 10:34:03;;;;;;;8.70;5.40;;;;;;;8.36;58.70;101117.47;108890;1260;73859;-64
2023/04/05 10:36:38;;;;;;;9.60;6.20;;;;;;;8.79;59.07;101105.94;108924;1260;66884;-64
2023/04/05 10:39:25;;;;;;;5.80;3.30;;;;;;;9.36;58.56;101108.67;108910;1260;66956;-64
2023/04/05 10:41:59;;;;;;;14.10;8.20;;;;;;;9.50;58.29;101099.48;108942;1260;73078;-64
2023/04/05 10:44:30;;;;;;;18.30;10.30;;;;;;;9.30;57.54;101106.17;109015;1258;82380;-64
2023/04/05 10:46:59;;;;;;;4.70;3.00;;;;;;;9.11;57.55;101100.80;108931;1258;72020;-64
2023/04/05 10:49:38;;;;;;;18.00;9.60;;;;;;;8.96;57.16;101100.22;108964;1258;66902;-64
2023/04/05 10:52:06;;;;;;;44.80;26.20;;;;;;;8.78;56.69;101102.65;108928;1258;66810;-64
2023/04/05 10:54:37;;;;;;;10.10;5.70;;;;;;;8.61;56.79;101099.98;108953;1258;74238;-64
2023/04/05 10:57:07;;;;;;;3.70;2.40;;;;;;;8.39;56.67;101102.63;109008;1258;82589;-64
2023/04/05 10:59:44;;;;;;;5.40;3.00;;;;;;;8.14;56.83;101105.44;108932;1258;72748;-64
2023/04/05 11:02:14;;;;;;;5.20;3.00;;;;;;;7.84;56.42;101107.63;108916;1258;66846;-63
2023/04/05 11:04:42;;;;;;;5.40;3.10;;;;;;;7.62;56.73;101111.61;108926;1258;66773;-63
2023/04/05 11:07:16;;;;;;;3.70;2.40;;;;;;;7.44;57.02;101112.35;109007;1258;74081;-64
2023/04/05 11:09:55;;;;;;;5.80;3.10;;;;;;;7.30;57.20;101112.00;108985;1258;83001;-64
2023/04/05 11:12:45;;;;;;;4.60;2.90;;;;;;;7.09;57.59;101114.16;108962;1258;73730;-64
2023/04/05 11:15:26;;;;;;;7.60;3.30;;;;;;;6.80;58.53;101111.34;108909;1259;66832;-64
2023/04/05 11:18:10;;;;;;;6.50;3.20;;;;;;;6.63;58.59;101108.04;108987;1258;66777;-64
2023/04/05 11:20:52;;;;;;;6.30;3.10;;;;;;;6.46;59.27;101110.10;109021;1258;73787;-64
2023/04/05 11:23:22;;;;;;;6.60;3.70;;;;;;;6.39;59.88;101102.88;109013;1258;83432;-63
2023/04/05 11:25:51;;;;;;;;;;;;;;;6.38;60.19;101102.36;108993;1258;72755;-63
2023/04/05 11:28:30;;;;;;;6.90;3.00;;;;;;;6.38;59.96;101102.52;108998;1258;66905;-63
2023/04/05 11:31:11;;;;;;;5.30;3.30;;;;;;;6.43;60.41;101103.88;108987;1258;66810;-64
2023/04/05 11:34:09;;;;;;;6.20;3.80;;;;;;;6.54;60.81;101100.99;109019;1258;74091;-63
2023/04/05 11:36:44;;;;;;;5.70;3.40;;;;;;;7.10;61.21;101100.06;108979;1258;83543;-63
2023/04/05 11:39:18;;;;;;;3.90;2.50;;;;;;;7.28;60.73;101096.91;108985;1258;73872;-64
2023/04/05 11:41:54;;;;;;;4.10;2.40;;;;;;;7.34;60.21;101097.34;108962;1258;66848;-63
2023/04/05 11:44:23;;;;;;;3.80;2.30;;;;;;;7.39;59.41;101094.85;108983;1258;66786;-63
2023/04/05 11:46:52;;;;;;;13.30;9.60;;;;;;;7.66;59.56;101094.32;108992;1258;74084;-64
2023/04/05 11:49:23;;;;;;;11.00;8.90;;;;;;;8.19;59.64;101084.82;109012;1258;83357;-64
2023/04/05 11:51:52;;;;;;;6.70;3.30;;;;;;;8.80;58.56;101083.08;108939;1258;72688;-64
2023/04/05 11:54:33;;;;;;;5.10;2.70;;;;;;;9.55;58.05;101071.09;108946;1258;66858;-64
2023/04/05 11:57:02;;;;;;;4.10;1.90;;;;;;;10.40;57.50;101070.84;108995;1258;67012;-64
2023/04/05 11:59:34;;;;;;;2.90;1.80;;;;;;;11.04;55.97;101069.14;108957;1258;73171;-66
2023/04/05 12:02:07;;;;;;;6.90;3.20;;;;;;;11.09;54.81;101075.48;108921;1258;83751;-68
2023/04/05 12:04:36;;;;;;;3.70;2.40;;;;;;;10.98;53.79;101074.20;108836;1260;72354;-66
2023/04/05 12:07:12;;;;;;;7.30;4.20;;;;;;;10.96;53.29;101076.38;108896;1259;66873;-65
2023/04/05 12:09:59;;;;;;;11.50;5.30;;;;;;;11.34;53.71;101077.90;108923;1259;66789;-64
2023/04/05 12:12:32;;;;;;;6.30;2.70;;;;;;;11.90;53.30;101074.27;108946;1259;73552;-65
2023/04/05 12:15:01;;;;;;;4.50;2.30;;;;;;;12.36;52.79;101068.23;108943;1260;83484;-64
2023/04/05 12:17:39;;;;;;;3.60;2.20;;;;;;;12.76;51.61;101065.09;108925;1260;73887;-64
2023/04/05 12:20:08;;;;;;;5.00;3.40;;;;;;;13.07;50.00;101060.13;108884;1260;66857;-64
2023/04/05 12:22:37;;;;;;;6.10;3.60;;;;;;;13.45;50.22;101065.05;108898;1258;66896;-65
2023/04/05 12:25:05;;;;;;;5.10;3.20;;;;;;;13.83;49.89;101067.42;108975;1258;74543;-65
2023/04/05 12:27:34;;;;;;;5.60;2.90;;;;;;;14.25;49.58;101065.90;109034;1258;83393;-65
2023/04/05 12:30:06;;;;;;;4.00;2.40;;;;;;;14.52;48.59;101060.39;108919;1258;73483;-65
2023/04/05 12:32:50;;;;;;;12.20;8.10;;;;;;;14.27;47.38;101059.28;108973;1258;66997;-66
2023/04/05 12:35:25;;;;;;;17.60;9.90;;;;;;;13.86;46.30;101056.92;109002;1258;66929;-65
2023/04/05 12:37:56;;;;;;;9.30;5.40;;;;;;;13.90;46.50;101053.28;108922;1258;74099;-65
2023/04/05 12:40:24;;;;;;;10.50;6.90;;;;;;;13.96;45.53;101048.11;108991;1259;83482;-65
2023/04/05 12:43:01;;;;;;;11.00;6.70;;;;;;;14.21;45.76;101048.48;108977;1258;73781;-64
2023/04/05 12:45:30;;;;;;;4.50;3.20;;;;;;;14.54;45.44;101046.58;108980;1258;67461;-64
2023/04/05 12:47:59;;;;;;;5.90;2.60;;;;;;;14.67;44.91;101042.16;108983;1258;67141;-65
2023/04/05 12:50:29;;;;;;;9.70;6.10;;;;;;;14.21;43.80;101044.45;109028;1258;74150;-64
2023/04/05 12:52:59;;;;;;;4.30;2.40;;;;;;;14.11;43.68;101038.38;108952;1259;83368;-64
2023/04/05 12:55:28;;;;;;;5.90;4.00;;;;;;;14.25;43.17;101036.71;108971;1258;73858;-64
2023/04/05 12:58:01;;;;;;;7.20;4.30;;;;;;;14.29;43.18;101043.05;108933;1259;66774;-65
2023/04/05 13:00:29;;;;;;;5.20;2.30;;;;;;;14.50;42.45;101038.46;108967;1258;67148;-64
2023/04/05 13:02:58;;;;;;;5.80;3.00;;;;;;;14.82;42.40;101041.14;108942;1260;74140;-65
2023/04/05 13:05:30;;;;;;;4.70;2.70;;;;;;;15.18;42.19;101044.11;109004;1257;83719;-64
2023/04/05 13:07:58;;;;;;;3.10;2.00;;;;;;;15.05;41.16;101039.40;108941;1257;72831;-65
2023/04/05 13:10:26;;;;;;;3.10;1.60;;;;;;;14.62;40.61;101035.83;109013;1257;66844;-64
2023/04/05 13:12:55;;;;;;;4.80;2.80;;;;;;;14.08;40.48;101034.62;108981;1258;66937;-64
2023/04/05 13:15:23;;;;;;;3.40;1.90;;;;;;;13.99;40.61;101033.73;108967;1258;73592;-64
2023/04/05 13:17:52;;;;;;;7.90;5.50;;;;;;;14.07;40.48;101036.23;109022;1258;83529;-64
2023/04/05 13:20:20;;;;;;;4.60;2.40;;;;;;;14.09;40.30;101037.23;108932;1258;73398;-64
2023/04/05 13:22:49;;;;;;;4.50;2.30;;;;;;;14.37;40.17;101035.16;108905;1259;67354;-64
2023/04/05 13:25:17;;;;;;;3.00;1.60;;;;;;;14.64;39.84;101031.20;108953;1259;66876;-64
2023/04/05 13:27:45;;;;;;;3.30;2.00;;;;;;;15.02;39.56;101025.07;108948;1259;74110;-65
2023/04/05 13:30:13;;;;;;;4.10;2.20;;;;;;;15.27;39.27;101027.83;108947;1259;83428;-64
2023/04/05 13:32:42;;;;;;;3.40;1.90;;;;;;;15.47;39.03;101022.86;108873;1257;73874;-63
2023/04/05 13:35:10;;;;;;;3.70;2.10;;;;;;;15.22;38.56;101025.94;108980;1257;66925;-62
2023/04/05 13:37:39;;;;;;;3.90;2.40;;;;;;;14.53;38.08;101026.55;109041;1257;66934;-62
2023/04/05 13:40:08;;;;;;;4.80;2.50;;;;;;;14.10;38.02;101027.13;109012;1258;74085;-62
2023/04/05 13:42:37;;;;;;;3.10;1.80;;;;;;;13.71;38.19;101022.95;108969;1258;82492;-62
2023/04/05 13:45:06;;;;;;;3.90;2.20;;;;;;;13.80;38.53;101023.99;108939;1257;74253;-62
2023/04/05 13:47:34;;;;;;;2.70;1.50;;;;;;;14.14;38.51;101026.61;109015;1257;66998;-61
2023/04/05 13:50:03;;;;;;;4.40;2.20;;;;;;;14.19;38.03;101025.17;108915;1258;170817;-61
2023/04/05 13:52:31;;;;;;;3.90;2.40;;;;;;;14.40;37.83;101022.34;109032;1257;73776;-62
2023/04/05 13:54:59;;;;;;;4.60;2.50;;;;;;;14.67;37.83;101022.65;109053;1257;82451;-62
2023/04/05 13:57:31;;;;;;;9.90;7.30;;;;;;;15.03;37.66;101025.39;109041;1259;71388;-62
2023/04/05 13:59:59;;;;;;;8.10;4.90;;;;;;;15.33;37.42;101024.75;108950;1257;67130;-62
2023/04/05 14:02:27;;;;;;;10.20;6.90;;;;;;;15.55;36.89;101022.95;109017;1258;66788;-62
2023/04/05 14:04:56;;;;;;;6.70;4.40;;;;;;;15.68;36.78;101014.98;109038;1257;72920;-63
2023/04/05 14:07:24;;;;;;;5.10;3.10;;;;;;;15.98;36.76;101011.39;109075;1257;83590;-62
2023/04/05 14:09:52;;;;;;;4.80;3.00;;;;;;;16.25;36.37;101011.45;109022;1257;72845;-62
2023/04/05 14:12:20;;;;;;;4.90;3.10;;;;;;;16.41;35.99;101013.80;109045;1257;66811;-63
2023/04/05 14:14:49;;;;;;;6.70;5.80;;;;;;;16.63;35.81;101011.77;109042;1257;66805;-62
2023/04/05 14:17:17;;;;;;;6.20;3.60;;;;;;;16.43;35.12;101014.09;109055;1257;74256;-62
2023/04/05 14:19:45;;;;;;;5.20;3.20;;;;;;;15.83;34.48;101012.46;109049;1257;83459;-62